Time;durP1;ratioP1;P1;durP2;ratioP2;P2;SDS_P1;SDS_P2;PMS_P1;PMS_P2;Temp;Humidity;BMP_temperature;BMP_pressure;BME280_temperature;BME280_humidity;BME280_pressure;Samples;Min_cycle;Max_cycle;Signal;HPM_P1;HPM_P2
2023/06/19 00:00:15;;;;;;;0.57;0.32;;;;;;;;;;5008452;28;20058;-63
2023/06/19 00:02:42;;;;;;;3.08;0.50;;;;;;;;;;5006368;28;20422;-63
2023/06/19 00:05:09;;;;;;;2.10;0.40;;;;;;;;;;5006164;28;20060;-63
2023/06/19 00:07:39;;;;;;;1.00;0.40;;;;;;;;;;5006865;28;20034;-64
2023/06/19 00:10:06;;;;;;;1.65;0.35;;;;;;;;;;5006511;28;20065;-64
2023/06/19 00:12:33;;;;;;;1.20;0.32;;;;;;;;;;4989441;28;20812;-65
2023/06/19 00:15:00;;;;;;;2.42;0.40;;;;;;;;;;5006409;28;20040;-64
2023/06/19 00:17:27;;;;;;;0.47;0.30;;;;;;;;;;4989016;28;20052;-62
2023/06/19 00:19:54;;;;;;;1.17;0.50;;;;;;;;;;5006404;28;20033;-62
2023/06/19 00:22:21;;;;;;;1.20;0.40;;;;;;;;;;4989656;28;20525;-63
2023/06/19 00:24:48;;;;;;;0.55;0.30;;;;;;;;;;5007145;28;20168;-64
2023/06/19 00:27:14;;;;;;;1.95;0.50;;;;;;;;;;5005152;28;20239;-63
2023/06/19 00:29:41;;;;;;;0.22;0.20;;;;;;;;;;5006283;28;20052;-61
2023/06/19 00:32:08;;;;;;;0.80;0.32;;;;;;;;;;5006248;28;20037;-63
2023/06/19 00:34:36;;;;;;;1.02;0.40;;;;;;;;;;5007061;28;20038;-63
2023/06/19 00:37:03;;;;;;;1.80;0.50;;;;;;;;;;5005528;28;20082;-62
2023/06/19 00:39:30;;;;;;;3.40;0.50;;;;;;;;;;4992421;28;20877;-64
2023/06/19 00:41:57;;;;;;;0.75;0.30;;;;;;;;;;5008392;28;20038;-62
2023/06/19 00:44:23;;;;;;;1.00;0.40;;;;;;;;;;4994045;28;20057;-63
2023/06/19 00:46:52;;;;;;;4.57;0.60;;;;;;;;;;5008211;28;20061;-62
2023/06/19 00:49:19;;;;;;;0.85;0.40;;;;;;;;;;5004873;28;20535;-63
2023/06/19 00:51:45;;;;;;;0.50;0.30;;;;;;;;;;4976176;28;20057;-61
2023/06/19 00:54:12;;;;;;;0.40;0.30;;;;;;;;;;5007556;28;20041;-62
2023/06/19 00:56:41;;;;;;;0.90;0.40;;;;;;;;;;5006986;28;20551;-61
2023/06/19 00:59:12;;;;;;;0.30;0.30;;;;;;;;;;5009086;28;20042;-62
2023/06/19 01:01:38;;;;;;;2.95;0.50;;;;;;;;;;4991273;28;20046;-63
2023/06/19 01:04:05;;;;;;;1.27;0.40;;;;;;;;;;4990911;28;20052;-61
2023/06/19 01:06:38;;;;;;;0.73;0.35;;;;;;;;;;5006541;28;20048;-64
2023/06/19 01:09:10;;;;;;;0.30;0.30;;;;;;;;;;4986311;28;20037;-63
2023/06/19 01:11:40;;;;;;;1.20;0.40;;;;;;;;;;5007619;28;20057;-61
2023/06/19 01:14:13;;;;;;;0.30;0.30;;;;;;;;;;5007826;28;21958;-63
2023/06/19 01:16:40;;;;;;;1.67;0.30;;;;;;;;;;5005549;28;20080;-62
2023/06/19 01:19:09;;;;;;;0.98;0.30;;;;;;;;;;4989685;28;20135;-64
2023/06/19 01:21:37;;;;;;;0.35;0.30;;;;;;;;;;5006328;28;20445;-63
2023/06/19 01:24:03;;;;;;;0.45;0.30;;;;;;;;;;5008011;28;20453;-63
2023/06/19 01:26:30;;;;;;;0.30;0.30;;;;;;;;;;4990714;28;20569;-64
2023/06/19 01:28:57;;;;;;;0.65;0.40;;;;;;;;;;5006564;28;20049;-64
2023/06/19 01:31:32;;;;;;;0.63;0.30;;;;;;;;;;5005040;28;20046;-64
2023/06/19 01:34:00;;;;;;;0.63;0.40;;;;;;;;;;5006297;28;20088;-64
2023/06/19 01:36:26;;;;;;;1.77;0.30;;;;;;;;;;4986182;28;20063;-64
2023/06/19 01:38:55;;;;;;;0.73;0.40;;;;;;;;;;5006849;28;20057;-64
2023/06/19 01:41:23;;;;;;;1.13;0.40;;;;;;;;;;5006299;28;20076;-64
2023/06/19 01:43:50;;;;;;;0.88;0.40;;;;;;;;;;5004177;28;20053;-64
2023/06/19 01:46:16;;;;;;;0.60;0.30;;;;;;;;;;5005846;28;20121;-64
2023/06/19 01:48:43;;;;;;;0.25;0.25;;;;;;;;;;4998777;28;20055;-62
2023/06/19 01:51:10;;;;;;;0.32;0.30;;;;;;;;;;5008386;28;20141;-62
2023/06/19 01:53:36;;;;;;;0.55;0.40;;;;;;;;;;4981687;28;22148;-64
2023/06/19 01:56:03;;;;;;;0.20;0.20;;;;;;;;;;5006938;28;20137;-64
2023/06/19 01:58:30;;;;;;;0.57;0.40;;;;;;;;;;5007145;28;20884;-64
2023/06/19 02:00:56;;;;;;;0.93;0.38;;;;;;;;;;5006840;28;20041;-63
2023/06/19 02:03:23;;;;;;;0.30;0.30;;;;;;;;;;5003840;28;20500;-60
2023/06/19 02:05:49;;;;;;;0.63;0.30;;;;;;;;;;5003276;28;20087;-63
2023/06/19 02:08:16;;;;;;;0.85;0.30;;;;;;;;;;5002846;28;20048;-64
2023/06/19 02:10:43;;;;;;;2.75;0.40;;;;;;;;;;4999227;28;20192;-60
2023/06/19 02:13:09;;;;;;;0.55;0.32;;;;;;;;;;5000924;28;20053;-61
2023/06/19 02:15:36;;;;;;;0.50;0.40;;;;;;;;;;5007848;28;20053;-65
2023/06/19 02:18:03;;;;;;;0.75;0.35;;;;;;;;;;5011882;28;20041;-66
2023/06/19 02:20:30;;;;;;;0.57;0.30;;;;;;;;;;5011438;28;20044;-65
2023/06/19 02:22:56;;;;;;;1.75;0.40;;;;;;;;;;4994092;28;20471;-62
2023/06/19 02:25:23;;;;;;;0.70;0.30;;;;;;;;;;5010900;28;23378;-60
2023/06/19 02:27:49;;;;;;;4.63;0.52;;;;;;;;;;5012848;28;20146;-61
2023/06/19 02:30:16;;;;;;;0.25;0.22;;;;;;;;;;4989760;28;20128;-63
2023/06/19 02:32:43;;;;;;;1.08;0.40;;;;;;;;;;5010818;28;20045;-63
2023/06/19 02:35:10;;;;;;;1.63;0.40;;;;;;;;;;5002146;28;20440;-62
2023/06/19 02:37:37;;;;;;;1.02;0.32;;;;;;;;;;5006653;28;20041;-66
2023/06/19 02:40:09;;;;;;;0.30;0.30;;;;;;;;;;5012374;28;20090;-63
2023/06/19 02:42:35;;;;;;;0.30;0.30;;;;;;;;;;5010845;28;20041;-64
2023/06/19 02:45:05;;;;;;;0.28;0.28;;;;;;;;;;5010862;28;20061;-61
2023/06/19 02:47:31;;;;;;;1.00;0.40;;;;;;;;;;5010925;28;20049;-63
2023/06/19 02:49:59;;;;;;;0.52;0.30;;;;;;;;;;5012021;28;20060;-64
2023/06/19 02:52:25;;;;;;;0.28;0.28;;;;;;;;;;5010811;28;20473;-64
2023/06/19 02:54:52;;;;;;;0.70;0.30;;;;;;;;;;4992555;28;20041;-64
2023/06/19 02:57:19;;;;;;;0.98;0.40;;;;;;;;;;5011960;28;20041;-62
2023/06/19 02:59:45;;;;;;;2.55;0.40;;;;;;;;;;5009722;28;20058;-64
2023/06/19 03:02:12;;;;;;;1.90;0.40;;;;;;;;;;5011205;28;20096;-62
2023/06/19 03:04:39;;;;;;;2.33;0.40;;;;;;;;;;4994925;28;20036;-63
2023/06/19 03:07:07;;;;;;;0.80;0.40;;;;;;;;;;4995180;28;20786;-62
2023/06/19 03:09:33;;;;;;;1.52;0.50;;;;;;;;;;5009806;28;20080;-63
2023/06/19 03:12:00;;;;;;;4.22;0.68;;;;;;;;;;5011280;28;20125;-62
2023/06/19 03:14:26;;;;;;;3.45;0.60;;;;;;;;;;5009245;28;20513;-63
2023/06/19 03:16:53;;;;;;;1.55;0.50;;;;;;;;;;5014126;28;20102;-63
2023/06/19 03:19:20;;;;;;;2.95;0.60;;;;;;;;;;4998149;28;21830;-64
2023/06/19 03:21:47;;;;;;;3.55;0.90;;;;;;;;;;5024548;28;20497;-62
2023/06/19 03:24:14;;;;;;;2.05;0.60;;;;;;;;;;5014622;28;20034;-62
2023/06/19 03:26:40;;;;;;;2.75;0.70;;;;;;;;;;5019505;28;20410;-63
2023/06/19 03:29:07;;;;;;;2.80;0.70;;;;;;;;;;5021901;28;20057;-63
2023/06/19 03:31:33;;;;;;;3.45;0.88;;;;;;;;;;5003105;28;20104;-62
2023/06/19 03:34:00;;;;;;;1.80;0.57;;;;;;;;;;5020119;28;20095;-64
2023/06/19 03:36:26;;;;;;;3.97;0.60;;;;;;;;;;4994436;28;20564;-64
2023/06/19 03:38:55;;;;;;;1.92;0.60;;;;;;;;;;5019839;28;20563;-64
2023/06/19 03:41:22;;;;;;;4.10;0.70;;;;;;;;;;5004973;28;20045;-64
2023/06/19 03:43:49;;;;;;;2.35;0.60;;;;;;;;;;5018173;28;20041;-62
2023/06/19 03:46:16;;;;;;;2.05;0.52;;;;;;;;;;5006019;28;20037;-61
2023/06/19 03:48:42;;;;;;;2.78;0.70;;;;;;;;;;5005988;28;22339;-64
2023/06/19 03:51:09;;;;;;;2.25;0.70;;;;;;;;;;4985971;28;20084;-64
2023/06/19 03:53:35;;;;;;;3.17;1.08;;;;;;;;;;5007706;28;20079;-62
2023/06/19 03:56:02;;;;;;;3.03;0.90;;;;;;;;;;5009208;28;20030;-63
2023/06/19 03:58:29;;;;;;;2.60;0.90;;;;;;;;;;5006835;28;20053;-62
2023/06/19 04:00:55;;;;;;;2.60;0.90;;;;;;;;;;4991308;28;20437;-61
2023/06/19 04:03:22;;;;;;;3.17;0.93;;;;;;;;;;5008782;28;20057;-63
2023/06/19 04:05:49;;;;;;;2.72;0.80;;;;;;;;;;4990247;28;20043;-62
2023/06/19 04:08:16;;;;;;;4.00;0.60;;;;;;;;;;5007168;28;20865;-62
2023/06/19 04:10:43;;;;;;;2.13;0.50;;;;;;;;;;5005330;28;20101;-63
2023/06/19 04:13:09;;;;;;;0.60;0.40;;;;;;;;;;5007412;28;20136;-63
2023/06/19 04:15:37;;;;;;;1.17;0.40;;;;;;;;;;4988255;28;20033;-62
2023/06/19 04:18:03;;;;;;;2.50;0.43;;;;;;;;;;5008268;28;20926;-65
2023/06/19 04:20:30;;;;;;;1.17;0.40;;;;;;;;;;5006612;28;20046;-63
2023/06/19 04:22:56;;;;;;;1.23;0.40;;;;;;;;;;5006479;28;20048;-63
2023/06/19 04:25:23;;;;;;;1.40;0.50;;;;;;;;;;4990288;28;20092;-63
2023/06/19 04:27:50;;;;;;;1.38;0.52;;;;;;;;;;5008707;28;20788;-63
2023/06/19 04:30:16;;;;;;;1.10;0.40;;;;;;;;;;5008274;28;20041;-64
2023/06/19 04:32:43;;;;;;;1.77;0.50;;;;;;;;;;5007154;28;20100;-62
2023/06/19 04:35:10;;;;;;;1.00;0.47;;;;;;;;;;5010223;28;20065;-64
2023/06/19 04:37:37;;;;;;;3.13;0.40;;;;;;;;;;5010506;28;20073;-63
2023/06/19 04:40:04;;;;;;;0.60;0.30;;;;;;;;;;4994739;28;20046;-64
2023/06/19 04:42:31;;;;;;;0.38;0.30;;;;;;;;;;4995902;28;20136;-64
2023/06/19 04:44:59;;;;;;;0.73;0.35;;;;;;;;;;5012658;28;20068;-64
2023/06/19 04:47:26;;;;;;;3.03;0.40;;;;;;;;;;5007033;28;20075;-64
2023/06/19 04:49:52;;;;;;;0.52;0.30;;;;;;;;;;5008905;28;20048;-64
2023/06/19 04:52:19;;;;;;;0.95;0.40;;;;;;;;;;5004635;28;20777;-63
2023/06/19 04:54:48;;;;;;;1.85;0.60;;;;;;;;;;5003621;28;20060;-64
2023/06/19 04:57:15;;;;;;;2.75;0.95;;;;;;;;;;4987247;28;20034;-63
2023/06/19 04:59:43;;;;;;;3.17;1.00;;;;;;;;;;4989424;28;20498;-62
2023/06/19 05:02:11;;;;;;;3.30;1.00;;;;;;;;;;4987246;28;20114;-66
2023/06/19 05:04:37;;;;;;;1.75;0.50;;;;;;;;;;5004390;28;20042;-66
2023/06/19 05:07:05;;;;;;;1.48;0.50;;;;;;;;;;5006903;28;20056;-63
2023/06/19 05:09:32;;;;;;;1.00;0.40;;;;;;;;;;5018873;28;21963;-64
2023/06/19 05:11:59;;;;;;;1.88;0.52;;;;;;;;;;5019210;28;20443;-63
2023/06/19 05:14:26;;;;;;;0.50;0.32;;;;;;;;;;5002273;28;20042;-65
2023/06/19 05:16:52;;;;;;;1.35;0.40;;;;;;;;;;5018569;28;20383;-64
2023/06/19 05:19:19;;;;;;;1.60;0.50;;;;;;;;;;5019895;28;20042;-63
2023/06/19 05:21:45;;;;;;;0.75;0.40;;;;;;;;;;5019617;28;20045;-63
2023/06/19 05:24:12;;;;;;;0.52;0.30;;;;;;;;;;5012059;28;20038;-61
2023/06/19 05:26:39;;;;;;;1.08;0.40;;;;;;;;;;5000415;28;20476;-63
2023/06/19 05:29:08;;;;;;;0.85;0.38;;;;;;;;;;5019067;28;20138;-63
2023/06/19 05:31:35;;;;;;;1.35;0.47;;;;;;;;;;5019016;28;20049;-60
2023/06/19 05:34:02;;;;;;;2.88;0.60;;;;;;;;;;5019306;28;20115;-62
2023/06/19 05:36:28;;;;;;;2.55;0.70;;;;;;;;;;4999776;28;20037;-62
2023/06/19 05:38:55;;;;;;;2.20;0.70;;;;;;;;;;5001165;28;20048;-62
2023/06/19 05:41:22;;;;;;;2.83;0.50;;;;;;;;;;5018177;28;20037;-63
2023/06/19 05:43:49;;;;;;;2.92;0.80;;;;;;;;;;5001911;28;20068;-63
2023/06/19 05:46:15;;;;;;;3.33;0.82;;;;;;;;;;4999919;28;20347;-66
2023/06/19 05:48:43;;;;;;;1.95;0.60;;;;;;;;;;5016591;28;20084;-62
2023/06/19 05:51:10;;;;;;;2.03;0.60;;;;;;;;;;5018984;28;20053;-63
2023/06/19 05:53:38;;;;;;;2.15;0.60;;;;;;;;;;5018344;28;20041;-62
2023/06/19 05:56:05;;;;;;;2.40;0.80;;;;;;;;;;5017568;28;20037;-62
2023/06/19 05:58:32;;;;;;;2.60;0.75;;;;;;;;;;5017132;28;20045;-63
2023/06/19 06:00:59;;;;;;;3.83;0.80;;;;;;;;;;5018565;28;20050;-64
2023/06/19 06:03:26;;;;;;;3.13;0.85;;;;;;;;;;5019985;28;20037;-61
2023/06/19 06:05:52;;;;;;;3.20;0.93;;;;;;;;;;4994781;28;20132;-62
2023/06/19 06:08:19;;;;;;;3.05;1.00;;;;;;;;;;5021453;28;20176;-63
2023/06/19 06:10:46;;;;;;;3.03;0.90;;;;;;;;;;5020071;28;20034;-62
2023/06/19 06:13:13;;;;;;;2.60;0.90;;;;;;;;;;5000910;28;20045;-63
2023/06/19 06:15:40;;;;;;;2.95;0.82;;;;;;;;;;5001345;28;20044;-63
2023/06/19 06:18:06;;;;;;;2.30;0.80;;;;;;;;;;5020028;28;20836;-63
2023/06/19 06:20:33;;;;;;;2.17;0.70;;;;;;;;;;5019794;28;20044;-61
2023/06/19 06:22:59;;;;;;;2.30;0.77;;;;;;;;;;5019740;28;20034;-64
2023/06/19 06:25:26;;;;;;;2.50;0.93;;;;;;;;;;5017425;28;20091;-61
2023/06/19 06:27:53;;;;;;;2.97;0.80;;;;;;;;;;5019317;28;20061;-61
2023/06/19 06:30:19;;;;;;;2.40;0.73;;;;;;;;;;5020318;28;20080;-62
2023/06/19 06:32:46;;;;;;;2.03;0.65;;;;;;;;;;5019436;28;20589;-61
2023/06/19 06:35:13;;;;;;;2.05;0.70;;;;;;;;;;5020778;28;20128;-63
2023/06/19 06:37:40;;;;;;;2.28;0.88;;;;;;;;;;5022362;28;20065;-64
2023/06/19 06:40:13;;;;;;;2.40;0.75;;;;;;;;;;5003992;28;20041;-63
2023/06/19 06:42:40;;;;;;;2.90;1.00;;;;;;;;;;4994404;28;20820;-64
2023/06/19 06:45:07;;;;;;;2.50;0.90;;;;;;;;;;5018367;28;20765;-64
2023/06/19 06:47:34;;;;;;;3.42;1.33;;;;;;;;;;5018583;28;20045;-64
2023/06/19 06:50:00;;;;;;;3.45;1.38;;;;;;;;;;5019844;28;20099;-63
2023/06/19 06:52:27;;;;;;;3.38;1.20;;;;;;;;;;5019902;28;20045;-64
2023/06/19 06:54:54;;;;;;;2.58;0.90;;;;;;;;;;5020537;28;20100;-63
2023/06/19 06:57:21;;;;;;;3.38;0.90;;;;;;;;;;5019342;28;20037;-65
2023/06/19 06:59:47;;;;;;;2.35;0.90;;;;;;;;;;5020990;28;20081;-63
2023/06/19 07:02:14;;;;;;;3.22;1.20;;;;;;;;;;5023264;28;20116;-63
2023/06/19 07:04:41;;;;;;;3.20;1.05;;;;;;;;;;5022888;28;22471;-62
2023/06/19 07:07:08;;;;;;;3.00;1.00;;;;;;;;;;5005024;28;20042;-63
2023/06/19 07:09:35;;;;;;;3.85;1.00;;;;;;;;;;5005861;28;20057;-64
2023/06/19 07:12:04;;;;;;;2.85;1.20;;;;;;;;;;5024657;28;20052;-62
2023/06/19 07:14:31;;;;;;;3.60;0.90;;;;;;;;;;5005638;28;20038;-63
2023/06/19 07:16:58;;;;;;;2.53;0.90;;;;;;;;;;5009764;28;20037;-62
2023/06/19 07:19:24;;;;;;;2.50;1.00;;;;;;;;;;5025397;28;20049;-64
2023/06/19 07:21:51;;;;;;;2.80;1.10;;;;;;;;;;5007778;28;20044;-62
2023/06/19 07:24:18;;;;;;;3.78;1.10;;;;;;;;;;5022997;28;20044;-63
2023/06/19 07:26:46;;;;;;;2.72;1.08;;;;;;;;;;5022457;28;20053;-63
2023/06/19 07:29:13;;;;;;;2.55;1.10;;;;;;;;;;5004739;28;20033;-63
2023/06/19 07:31:42;;;;;;;2.85;1.10;;;;;;;;;;5021870;28;20045;-63
2023/06/19 07:34:09;;;;;;;3.22;1.00;;;;;;;;;;5018194;28;20029;-62
2023/06/19 07:36:35;;;;;;;2.95;1.25;;;;;;;;;;5021496;28;20037;-63
2023/06/19 07:39:02;;;;;;;4.45;1.20;;;;;;;;;;4997048;28;20036;-62
2023/06/19 07:41:29;;;;;;;4.18;1.60;;;;;;;;;;5003384;28;20044;-63
2023/06/19 07:43:55;;;;;;;3.90;1.58;;;;;;;;;;5020930;28;20731;-61
2023/06/19 07:46:22;;;;;;;3.38;1.55;;;;;;;;;;5019484;28;20067;-64
2023/06/19 07:48:49;;;;;;;3.78;1.90;;;;;;;;;;5021479;28;21738;-64
2023/06/19 07:51:15;;;;;;;3.90;1.90;;;;;;;;;;5021198;28;20551;-63
2023/06/19 07:53:43;;;;;;;4.78;1.92;;;;;;;;;;5002526;28;20038;-64
2023/06/19 07:56:10;;;;;;;5.10;2.17;;;;;;;;;;5002651;28;20045;-62
2023/06/19 07:58:36;;;;;;;5.03;2.00;;;;;;;;;;5021116;28;20041;-63
2023/06/19 08:01:03;;;;;;;4.15;2.10;;;;;;;;;;5022184;28;20129;-62
2023/06/19 08:03:30;;;;;;;4.22;1.83;;;;;;;;;;5020167;28;20042;-62
2023/06/19 08:05:57;;;;;;;4.45;1.90;;;;;;;;;;5020123;28;20398;-63
2023/06/19 08:08:24;;;;;;;4.85;2.00;;;;;;;;;;5020694;28;20125;-64
2023/06/19 08:10:50;;;;;;;3.70;1.90;;;;;;;;;;5020701;28;20906;-63
2023/06/19 08:13:17;;;;;;;3.90;1.95;;;;;;;;;;5020713;28;20045;-65
2023/06/19 08:15:45;;;;;;;3.92;2.05;;;;;;;;;;5019828;28;22425;-63
2023/06/19 08:18:11;;;;;;;3.40;1.80;;;;;;;;;;5022245;28;20714;-62
2023/06/19 08:20:38;;;;;;;3.33;1.60;;;;;;;;;;5020964;28;20187;-64
2023/06/19 08:23:04;;;;;;;3.85;1.83;;;;;;;;;;5015469;28;20665;-63
2023/06/19 08:25:31;;;;;;;4.63;2.10;;;;;;;;;;5019424;28;20045;-63
2023/06/19 08:27:58;;;;;;;3.35;1.67;;;;;;;;;;5020350;28;20050;-64
2023/06/19 08:30:24;;;;;;;3.67;1.60;;;;;;;;;;5020283;28;20508;-64
2023/06/19 08:32:51;;;;;;;4.97;1.50;;;;;;;;;;5020402;28;20638;-62
2023/06/19 08:35:17;;;;;;;3.35;1.50;;;;;;;;;;5019645;28;20137;-62
2023/06/19 08:37:44;;;;;;;3.83;1.65;;;;;;;;;;4995075;28;20065;-62
2023/06/19 08:40:31;;;;;;;3.45;1.60;;;;;;;;;;4977379;28;20046;-64
2023/06/19 08:42:58;;;;;;;3.53;1.65;;;;;;;;;;4978188;28;20050;-65
2023/06/19 08:45:27;;;;;;;3.58;1.80;;;;;;;;;;4976927;28;20100;-64
2023/06/19 08:48:02;;;;;;;4.07;2.25;;;;;;;;;;4978773;28;20058;-63
2023/06/19 08:50:29;;;;;;;4.55;2.17;;;;;;;;;;4977208;28;20499;-61
2023/06/19 08:52:55;;;;;;;4.43;2.40;;;;;;;;;;4978308;28;20185;-62
2023/06/19 08:55:22;;;;;;;4.63;2.65;;;;;;;;;;4977608;28;20117;-62
2023/06/19 08:57:49;;;;;;;5.10;3.13;;;;;;;;;;4977467;28;20149;-62
2023/06/19 09:00:25;;;;;;;5.85;3.60;;;;;;;;;;4978826;28;20038;-63
2023/06/19 09:02:52;;;;;;;7.75;4.60;;;;;;;;;;4978786;28;20042;-66
2023/06/19 09:05:19;;;;;;;7.30;4.80;;;;;;;;;;4979361;28;20038;-63
2023/06/19 09:07:55;;;;;;;11.27;6.13;;;;;;;;;;4980032;28;20038;-64
2023/06/19 09:10:23;;;;;;;11.27;7.55;;;;;;;;;;4980863;28;20554;-63
2023/06/19 09:13:04;;;;;;;19.10;9.13;;;;;;;;;;4954825;28;20118;-61
2023/06/19 09:15:37;;;;;;;15.02;10.07;;;;;;;;;;4979205;28;20561;-62
2023/06/19 09:18:05;;;;;;;22.48;11.20;;;;;;;;;;5002584;28;20045;-60
2023/06/19 09:20:32;;;;;;;17.95;10.88;;;;;;;;;;5011985;28;20123;-63
2023/06/19 09:22:59;;;;;;;21.60;12.13;;;;;;;;;;5001560;28;20041;-64
2023/06/19 09:25:26;;;;;;;20.63;11.88;;;;;;;;;;5012024;28;20478;-62
2023/06/19 09:27:56;;;;;;;18.27;11.23;;;;;;;;;;5018391;28;20057;-65
2023/06/19 09:30:23;;;;;;;28.48;11.93;;;;;;;;;;5006116;28;20367;-64
2023/06/19 09:32:50;;;;;;;17.15;11.57;;;;;;;;;;5022106;28;20432;-61
2023/06/19 09:35:17;;;;;;;19.83;11.80;;;;;;;;;;5001144;28;20041;-63
2023/06/19 09:37:46;;;;;;;14.70;10.50;;;;;;;;;;4999608;28;20037;-65
2023/06/19 09:40:13;;;;;;;15.18;11.13;;;;;;;;;;4999354;28;20842;-62
2023/06/19 09:42:40;;;;;;;15.65;9.95;;;;;;;;;;5017880;28;20029;-67
2023/06/19 09:45:11;;;;;;;17.85;9.95;;;;;;;;;;5000749;28;20112;-63
2023/06/19 09:47:44;;;;;;;15.00;9.55;;;;;;;;;;5018527;28;20128;-64
2023/06/19 09:50:12;;;;;;;14.13;10.00;;;;;;;;;;5018761;28;20083;-64
2023/06/19 09:52:40;;;;;;;14.73;9.75;;;;;;;;;;5019395;28;20054;-63
2023/06/19 09:55:09;;;;;;;11.50;8.75;;;;;;;;;;5019126;28;20069;-65
2023/06/19 09:57:38;;;;;;;12.98;8.70;;;;;;;;;;5019444;28;20402;-63
2023/06/19 10:00:31;;;;;;;11.73;8.73;;;;;;;;;;4993231;28;20871;-65
2023/06/19 10:02:52;;;;;;;11.43;8.38;;;;;;;;;;5018615;28;20805;-65
2023/06/19 10:05:30;;;;;;;11.73;8.23;;;;;;;;;;5020252;28;20869;-64
2023/06/19 10:08:00;;;;;;;12.40;8.85;;;;;;;;;;5019400;28;20091;-65
2023/06/19 10:10:28;;;;;;;12.75;10.05;;;;;;;;;;5017904;28;20128;-65
2023/06/19 10:12:56;;;;;;;13.10;9.77;;;;;;;;;;5019286;28;20049;-64
2023/06/19 10:15:29;;;;;;;14.63;10.45;;;;;;;;;;5019149;28;20037;-66
2023/06/19 10:18:06;;;;;;;16.38;11.48;;;;;;;;;;5019008;28;20702;-65
2023/06/19 10:20:38;;;;;;;15.20;11.23;;;;;;;;;;4996832;28;20057;-63
2023/06/19 10:23:09;;;;;;;14.00;10.90;;;;;;;;;;4992305;28;20413;-66
2023/06/19 10:25:37;;;;;;;16.13;12.00;;;;;;;;;;5019088;28;20041;-63
2023/06/19 10:28:07;;;;;;;13.73;10.65;;;;;;;;;;5018886;28;20502;-64
2023/06/19 10:30:34;;;;;;;12.90;9.90;;;;;;;;;;5000768;28;20541;-63
2023/06/19 10:33:04;;;;;;;10.80;7.93;;;;;;;;;;5019549;28;20046;-65
2023/06/19 10:35:39;;;;;;;12.30;8.63;;;;;;;;;;5002523;28;21855;-66
2023/06/19 10:38:06;;;;;;;11.70;8.88;;;;;;;;;;5007389;28;20053;-64
2023/06/19 10:40:32;;;;;;;11.38;8.80;;;;;;;;;;5007057;28;20041;-63
2023/06/19 10:42:59;;;;;;;11.80;8.70;;;;;;;;;;5027353;28;20076;-64
2023/06/19 10:45:28;;;;;;;12.10;9.10;;;;;;;;;;5008847;28;20504;-64
2023/06/19 10:47:55;;;;;;;13.82;10.25;;;;;;;;;;5025221;28;20068;-63
2023/06/19 10:50:23;;;;;;;13.13;9.35;;;;;;;;;;5024326;28;20038;-62
2023/06/19 10:52:50;;;;;;;14.70;10.88;;;;;;;;;;5023829;28;20057;-64
2023/06/19 10:55:17;;;;;;;15.00;11.55;;;;;;;;;;5024311;28;20549;-64
2023/06/19 10:57:46;;;;;;;15.68;11.70;;;;;;;;;;5004350;28;20041;-64
2023/06/19 11:00:23;;;;;;;14.55;10.45;;;;;;;;;;5023465;28;20068;-64
2023/06/19 11:02:50;;;;;;;15.40;11.10;;;;;;;;;;5022360;28;20044;-64
2023/06/19 11:05:17;;;;;;;16.27;11.50;;;;;;;;;;5004646;28;20137;-63
2023/06/19 11:07:44;;;;;;;14.73;10.52;;;;;;;;;;5011728;28;20455;-66
2023/06/19 11:10:19;;;;;;;14.68;10.60;;;;;;;;;;5004059;28;20120;-63
2023/06/19 11:12:46;;;;;;;15.23;10.82;;;;;;;;;;5021432;28;20053;-63
2023/06/19 11:15:12;;;;;;;14.27;10.18;;;;;;;;;;5023378;28;20042;-63
2023/06/19 11:17:39;;;;;;;14.65;9.95;;;;;;;;;;5003518;28;20148;-63
2023/06/19 11:20:10;;;;;;;14.15;9.88;;;;;;;;;;5021720;28;20136;-61
2023/06/19 11:22:38;;;;;;;14.23;9.75;;;;;;;;;;4996177;28;20041;-62
2023/06/19 11:25:05;;;;;;;13.95;9.32;;;;;;;;;;5022108;28;20033;-63
2023/06/19 11:27:32;;;;;;;11.98;8.20;;;;;;;;;;5002721;28;20045;-65
2023/06/19 11:29:59;;;;;;;10.88;7.45;;;;;;;;;;5021363;28;20517;-65
2023/06/19 11:32:40;;;;;;;11.35;6.70;;;;;;;;;;5019677;28;20139;-67
2023/06/19 11:35:11;;;;;;;10.75;6.40;;;;;;;;;;5003683;28;21805;-63
2023/06/19 11:37:38;;;;;;;13.38;5.72;;;;;;;;;;5021546;28;20477;-64
2023/06/19 11:40:14;;;;;;;12.05;5.28;;;;;;;;;;5021601;28;20575;-65
2023/06/19 11:42:50;;;;;;;7.22;4.88;;;;;;;;;;5020088;28;20033;-63
2023/06/19 11:45:17;;;;;;;7.07;4.45;;;;;;;;;;4995321;28;20068;-65
2023/06/19 11:47:44;;;;;;;6.70;4.32;;;;;;;;;;4994151;28;20095;-63
2023/06/19 11:50:11;;;;;;;8.10;4.10;;;;;;;;;;5022352;28;20041;-64
2023/06/19 11:52:38;;;;;;;6.03;3.83;;;;;;;;;;5021059;28;20057;-62
2023/06/19 11:55:05;;;;;;;6.55;3.95;;;;;;;;;;5022335;28;20048;-61
2023/06/19 11:57:33;;;;;;;7.43;4.30;;;;;;;;;;5004093;28;20160;-63
2023/06/19 11:59:59;;;;;;;5.63;3.38;;;;;;;;;;5004906;28;20060;-61
2023/06/19 12:02:26;;;;;;;5.80;3.47;;;;;;;;;;5001465;28;20119;-66
2023/06/19 12:04:53;;;;;;;5.70;3.03;;;;;;;;;;5022298;28;20116;-63
2023/06/19 12:07:20;;;;;;;4.88;2.88;;;;;;;;;;5020890;28;20500;-63
2023/06/19 12:09:46;;;;;;;5.18;2.70;;;;;;;;;;5001832;28;20049;-63
2023/06/19 12:12:13;;;;;;;7.90;2.90;;;;;;;;;;5019710;28;20079;-64
2023/06/19 12:14:40;;;;;;;3.72;1.90;;;;;;;;;;5022922;28;20033;-64
2023/06/19 12:17:06;;;;;;;3.75;1.90;;;;;;;;;;5021890;28;20045;-64
2023/06/19 12:19:33;;;;;;;3.92;1.85;;;;;;;;;;5007115;28;20107;-62
2023/06/19 12:21:59;;;;;;;4.13;1.83;;;;;;;;;;5020600;28;20044;-63
2023/06/19 12:24:26;;;;;;;3.67;1.80;;;;;;;;;;5020988;28;20049;-65
2023/06/19 12:26:53;;;;;;;3.92;1.98;;;;;;;;;;5022825;28;20127;-63
2023/06/19 12:29:20;;;;;;;3.97;1.80;;;;;;;;;;5021749;28;20052;-63
2023/06/19 12:31:47;;;;;;;6.75;1.90;;;;;;;;;;5021768;28;20064;-65
2023/06/19 12:34:13;;;;;;;8.15;2.00;;;;;;;;;;5003199;28;20046;-63
2023/06/19 12:36:42;;;;;;;4.88;1.70;;;;;;;;;;5020283;28;20250;-65
2023/06/19 12:39:16;;;;;;;3.08;1.40;;;;;;;;;;5021293;28;20050;-63
2023/06/19 12:41:43;;;;;;;3.95;1.30;;;;;;;;;;5021880;28;20037;-64
2023/06/19 12:44:09;;;;;;;3.10;1.27;;;;;;;;;;5003138;28;20520;-61
2023/06/19 12:46:36;;;;;;;2.60;0.90;;;;;;;;;;5004826;28;20957;-62
2023/06/19 12:49:03;;;;;;;2.50;0.90;;;;;;;;;;5021205;28;20041;-66
2023/06/19 12:51:30;;;;;;;2.85;1.10;;;;;;;;;;5001830;28;20513;-62
2023/06/19 12:53:56;;;;;;;2.90;1.00;;;;;;;;;;5021252;28;20864;-63
2023/06/19 12:56:23;;;;;;;2.85;1.10;;;;;;;;;;5022328;28;20100;-62
2023/06/19 12:58:49;;;;;;;3.17;1.10;;;;;;;;;;5024305;28;20038;-62
2023/06/19 13:01:16;;;;;;;3.05;0.88;;;;;;;;;;5022634;28;20037;-64
2023/06/19 13:03:43;;;;;;;2.22;0.70;;;;;;;;;;5021994;28;20037;-63
2023/06/19 13:06:10;;;;;;;1.75;0.60;;;;;;;;;;4995027;28;20083;-64
2023/06/19 13:08:37;;;;;;;3.67;0.80;;;;;;;;;;5011752;28;20034;-63
2023/06/19 13:11:03;;;;;;;3.42;0.70;;;;;;;;;;5019776;28;20060;-63
2023/06/19 13:13:30;;;;;;;2.60;0.75;;;;;;;;;;5021559;28;20409;-66
2023/06/19 13:15:56;;;;;;;2.83;0.52;;;;;;;;;;5022690;28;20052;-70
2023/06/19 13:18:23;;;;;;;3.70;0.60;;;;;;;;;;5022049;28;20087;-63
2023/06/19 13:20:50;;;;;;;2.17;0.70;;;;;;;;;;5023703;28;20132;-61
2023/06/19 13:23:16;;;;;;;0.95;0.47;;;;;;;;;;5022210;28;20049;-62
2023/06/19 13:25:43;;;;;;;2.58;0.82;;;;;;;;;;5020463;28;20045;-62
2023/06/19 13:28:10;;;;;;;5.00;0.73;;;;;;;;;;5021777;28;20033;-61
2023/06/19 13:30:36;;;;;;;2.63;0.50;;;;;;;;;;5018033;28;20069;-61
2023/06/19 13:33:03;;;;;;;2.03;0.75;;;;;;;;;;5020685;28;20045;-62
2023/06/19 13:35:30;;;;;;;3.80;0.60;;;;;;;;;;5018791;28;20060;-62
2023/06/19 13:37:57;;;;;;;5.22;0.80;;;;;;;;;;5010763;28;20076;-65
2023/06/19 13:40:23;;;;;;;2.63;0.63;;;;;;;;;;5018069;28;20049;-69
2023/06/19 13:42:50;;;;;;;1.45;0.50;;;;;;;;;;5019790;28;20030;-64
2023/06/19 13:45:17;;;;;;;1.85;0.60;;;;;;;;;;5019526;28;20052;-62
2023/06/19 13:47:43;;;;;;;4.38;0.68;;;;;;;;;;5018838;28;20032;-64
2023/06/19 13:50:14;;;;;;;1.45;0.40;;;;;;;;;;5018433;28;20038;-65
2023/06/19 13:52:41;;;;;;;3.42;0.65;;;;;;;;;;5000350;28;20057;-63
2023/06/19 13:55:08;;;;;;;1.02;0.40;;;;;;;;;;5019432;28;20049;-63
2023/06/19 13:57:34;;;;;;;2.63;0.43;;;;;;;;;;5018712;28;20034;-63
2023/06/19 14:00:02;;;;;;;1.92;0.50;;;;;;;;;;5019913;28;20494;-62
2023/06/19 14:02:29;;;;;;;1.55;0.50;;;;;;;;;;5018306;28;20409;-64
2023/06/19 14:04:56;;;;;;;3.85;0.75;;;;;;;;;;5020661;28;20494;-63
2023/06/19 14:07:23;;;;;;;2.08;0.70;;;;;;;;;;5018825;28;20104;-63
2023/06/19 14:09:53;;;;;;;1.48;0.43;;;;;;;;;;5019015;28;20045;-62
2023/06/19 14:12:19;;;;;;;2.00;0.40;;;;;;;;;;5017126;28;20062;-61
2023/06/19 14:14:46;;;;;;;2.00;0.50;;;;;;;;;;5021170;28;20397;-62
2023/06/19 14:17:13;;;;;;;1.33;0.45;;;;;;;;;;5003410;28;20699;-62
2023/06/19 14:19:39;;;;;;;0.68;0.35;;;;;;;;;;5019689;28;20037;-63
2023/06/19 14:22:06;;;;;;;1.02;0.40;;;;;;;;;;4997613;28;20030;-64
2023/06/19 14:24:33;;;;;;;0.65;0.35;;;;;;;;;;5021842;28;20044;-62
2023/06/19 14:26:59;;;;;;;1.27;0.50;;;;;;;;;;5023492;28;20065;-63
2023/06/19 14:29:26;;;;;;;2.47;0.50;;;;;;;;;;5022371;28;20041;-63
2023/06/19 14:31:53;;;;;;;2.58;0.40;;;;;;;;;;5004924;28;20049;-62
2023/06/19 14:34:20;;;;;;;0.55;0.40;;;;;;;;;;5003233;28;20122;-63
2023/06/19 14:36:47;;;;;;;3.08;0.60;;;;;;;;;;5002588;28;20194;-63
2023/06/19 14:39:14;;;;;;;0.95;0.50;;;;;;;;;;5002957;28;20084;-65
2023/06/19 14:41:40;;;;;;;0.80;0.40;;;;;;;;;;5015978;28;20036;-62